Date,TemperatureHighF,TemperatureAvgF,TemperatureLowF,DewpointHighF,DewpointAvgF,DewpointLowF,HumidityHigh,HumidityAvg,HumidityLow,PressureMaxIn,PressureMinIn,WindSpeedMaxMPH,WindSpeedAvgMPH,GustSpeedMaxMPH,PrecipitationSumIn
2013-1-3,37.0,37.0,36.9,31.9,31.8,31.7,82,82,81,30.28,30.28,6,6,7,0.00
2013-1-4,46.6,39.1,27.3,29.1,26.6,23.3,91,62,44,30.48,30.37,13,3,13,0.00
2013-1-5,48.4,36.9,24.7,38.6,28.6,22.9,96,75,45,30.43,30.26,12,2,12,0.04
2013-1-6,48.9,42.0,38.4,41.1,37.9,31.5,98,86,67,30.32,30.15,19,3,19,0.04
2013-1-7,54.9,37.0,26.9,35.2,30.7,25.3,97,80,44,30.43,30.31,14,2,14,0.00
2013-1-8,28.6,26.6,25.7,27.6,26.0,25.0,98,97,96,30.38,30.32,2,0,2,0.00
2013-1-9,53.7,51.1,47.9,52.6,50.0,45.7,97,96,92,30.44,30.35,6,1,9,0.06
2013-1-10,64.3,54.8,49.1,57.3,52.3,48.3,98,91,78,30.43,30.10,5,2,8,0.00
2013-1-11,66.8,64.8,62.8,64.5,62.0,56.7,98,91,76,30.12,30.03,14,9,22,0.11
2013-1-12,71.4,66.7,61.7,65.7,63.5,58.5,97,90,79,30.09,29.95,12,6,17,0.04
2013-1-13,69.6,65.8,52.5,63.1,61.1,52.0,99,85,74,30.03,29.91,15,10,24,1.25
2013-1-14,52.5,43.4,38.1,51.7,43.0,37.8,100,98,96,30.27,30.03,12,6,17,1.72
2013-1-15,43.5,41.7,39.4,43.5,41.6,39.1,100,100,98,30.18,29.98,8,3,11,1.78
2013-1-16,49.3,44.9,42.9,48.5,44.5,41.9,100,99,95,30.07,29.93,9,3,12,0.21
2013-1-17,43.9,40.0,33.7,42.8,37.8,30.3,99,92,78,30.36,29.78,18,9,29,0.43
2013-1-18,50.2,36.2,27.7,35.9,30.9,27.1,99,83,48,30.57,30.36,5,1,9,0.00
2013-1-19,54.1,38.4,24.0,37.5,30.8,23.3,100,78,45,30.46,30.22,13,3,19,0.01
2013-1-20,61.1,41.5,29.2,42.0,34.6,28.5,99,80,44,30.24,30.13,6,1,11,0.00
2013-1-21,40.1,29.3,26.2,35.8,28.7,25.7,99,97,71,30.22,30.13,7,0,10,0.00
2013-1-23,50.1,43.0,35.1,32.4,28.4,19.6,80,58,39,30.31,30.17,10,4,14,0.00
2013-1-24,44.7,36.7,28.9,37.9,22.3,9.6,91,58,33,30.41,30.18,13,5,22,0.00
2013-1-25,35.5,33.0,29.1,35.2,25.9,11.1,99,77,44,30.39,30.15,14,4,19,0.01
2013-1-26,50.3,38.2,31.0,35.9,33.9,30.6,99,86,54,30.36,30.21,6,2,12,0.00
2013-1-27,49.9,40.8,30.4,39.4,34.0,28.6,93,78,62,30.47,30.33,7,3,12,0.00
2013-1-28,56.3,48.5,42.9,50.2,40.7,33.8,83,74,61,30.37,30.23,11,5,15,0.00
2013-1-30,67.0,53.0,40.8,65.2,51.5,35.9,99,95,76,29.79,29.51,36,8,36,1.85
2013-1-31,40.5,37.2,34.6,36.1,27.9,24.6,85,69,62,30.05,29.78,23,6,23,0.00
2013-2-1,34.5,29.2,22.4,19.7,15.9,12.3,86,58,41,30.45,30.38,10,4,0,0.00
2013-2-2,37.0,29.7,20.8,34.4,25.9,18.8,95,86,74,30.40,30.13,10,4,0,0.01
2013-2-3,51.0,38.6,29.8,38.9,31.4,26.7,98,78,43,30.18,30.03,11,5,0,0.01
2013-2-4,50.4,36.3,25.0,32.8,28.2,23.8,96,76,42,30.17,29.98,11,3,12,0.00
2013-2-5,62.0,50.0,41.7,46.1,40.5,31.5,95,71,47,30.03,29.92,9,3,12,0.00
2013-2-6,66.1,45.9,34.5,47.9,37.5,32.9,99,78,32,30.21,30.03,5,1,8,0.01
2013-2-7,56.3,46.3,39.5,49.5,42.3,37.2,95,86,65,30.14,29.94,5,1,5,0.02
2013-2-8,54.7,46.9,38.9,50.2,42.1,32.2,98,84,57,30.27,29.91,16,6,19,0.10
2013-2-9,56.3,42.7,32.8,38.1,31.8,28.2,89,68,38,30.35,30.23,9,4,12,0.00
2013-2-10,60.9,47.4,37.8,50.3,41.7,33.9,98,84,39,30.25,29.98,12,2,15,0.61
2013-2-11,57.7,53.6,42.4,55.1,49.4,35.3,99,87,44,30.13,29.98,11,5,13,0.02
2013-2-12,52.5,45.8,36.6,42.0,36.9,31.6,97,73,45,30.17,29.84,7,2,10,0.07
2013-2-13,49.4,43.9,39.4,47.2,41.1,35.6,99,90,75,30.01,29.70,13,4,16,0.10
2013-2-14,56.2,44.2,35.0,39.7,36.5,33.2,96,76,50,30.09,30.00,10,2,15,0.00
2013-2-15,58.7,41.3,29.7,43.0,35.9,29.3,100,84,54,30.11,30.01,15,4,20,0.00
2013-2-19,54.8,47.2,37.3,46.1,26.7,14.8,95,49,24,30.22,29.99,14,7,20,0.34
2013-2-20,40.8,33.2,22.1,26.9,20.4,14.2,96,62,36,30.27,30.19,7,2,18,0.00
2013-2-21,54.4,40.2,30.6,40.5,25.9,18.7,97,60,29,30.25,29.96,6,3,9,0.72
2013-2-22,51.0,46.7,41.5,46.8,44.4,40.5,99,92,82,30.08,30.00,8,3,10,0.17
2013-2-23,57.0,48.4,42.4,50.5,46.3,40.1,99,93,76,30.03,29.83,5,1,8,0.24
2013-2-24,58.4,43.0,29.4,39.9,33.2,27.2,99,74,31,30.08,29.93,8,2,10,0.00
2013-2-25,60.6,48.1,35.7,45.7,34.8,28.6,88,61,41,30.03,29.75,6,3,10,0.00
2013-2-26,53.5,48.6,41.3,49.4,44.7,37.2,96,87,67,29.75,29.48,20,7,23,0.68
2013-2-27,42.3,41.2,40.5,38.0,36.3,34.7,87,83,75,29.88,29.73,13,7,14,0.00
2013-3-1,41.1,38.7,35.5,33.5,32.4,31.7,92,78,71,30.02,29.97,7,4,10,0.00
2013-3-2,38.2,35.5,33.4,33.6,30.3,26.1,96,82,67,30.09,29.97,12,5,16,0.03
2013-3-3,38.2,32.3,23.2,26.8,22.3,19.4,92,67,49,30.13,30.07,12,6,16,0.00
2013-3-4,54.2,38.0,21.3,36.2,26.4,19.8,96,68,32,30.23,29.99,4,1,12,0.00
2013-3-5,57.2,48.2,35.4,55.8,43.1,30.5,99,83,62,30.02,29.60,19,7,23,0.84
2013-3-6,38.0,35.6,32.9,30.6,28.4,23.7,84,75,65,30.27,29.91,15,8,20,0.00
2013-3-7,45.1,37.7,33.9,33.5,30.5,28.8,85,75,60,30.36,30.24,8,5,15,0.00
2013-3-8,56.5,41.2,31.2,34.6,28.7,23.5,86,65,29,30.40,30.28,9,4,14,0.00
2013-3-9,60.8,47.3,32.8,38.9,33.6,29.4,91,62,36,30.32,30.16,10,2,12,0.00
2013-3-10,71.9,55.9,40.6,43.7,37.5,31.6,91,56,23,30.16,29.96,16,4,20,0.00
2013-3-11,64.1,57.5,46.1,55.5,51.1,41.7,98,80,55,29.98,29.67,18,9,27,0.91
2013-3-12,55.8,44.9,35.7,41.7,34.9,31.8,91,70,43,30.12,29.89,11,5,25,0.00
2013-3-13,46.3,37.9,29.6,36.7,27.7,20.9,99,70,40,30.36,30.10,14,6,19,0.00
2013-3-14,52.6,38.6,28.4,36.7,22.8,18.2,87,56,28,30.43,30.25,10,3,14,0.02
2013-3-15,72.4,52.4,31.7,47.1,39.9,30.9,99,68,36,30.29,29.92,14,5,21,0.01
2013-3-16,76.3,65.8,56.3,51.8,47.1,44.3,66,52,37,29.92,29.77,16,8,21,0.00
2013-3-17,71.4,63.5,54.0,55.5,50.2,46.6,83,62,42,29.93,29.82,15,6,19,0.00
2013-3-18,63.0,58.6,53.4,57.5,54.6,49.6,100,87,72,29.88,29.71,20,9,26,0.47
2013-3-19,59.9,50.1,36.3,53.7,33.6,18.8,100,59,24,30.13,29.84,13,5,18,0.02
2013-3-20,56.0,45.5,35.2,33.8,25.1,16.1,83,49,22,30.15,29.91,18,5,20,0.00
2013-3-21,43.9,34.9,26.6,30.1,17.5,11.1,74,51,30,30.06,29.95,11,6,17,0.00
2013-3-22,46.7,38.6,30.2,34.5,24.5,19.3,76,57,42,30.09,30.00,5,2,17,0.00
2013-3-23,55.0,46.3,39.4,46.6,40.9,33.7,94,82,68,30.05,29.75,6,3,9,0.09
2013-3-24,61.6,50.1,43.1,55.2,46.4,32.1,98,88,62,29.82,29.39,18,7,21,1.03
2013-3-25,43.1,37.1,34.5,33.3,27.5,24.9,74,68,59,30.09,29.65,15,9,21,0.00
2013-3-26,40.2,35.9,29.5,31.7,28.9,26.9,93,76,61,30.33,30.08,11,5,19,0.00
2013-3-27,51.5,37.9,25.5,32.6,27.2,24.4,98,70,35,30.39,30.27,11,3,15,0.00
2013-3-28,59.0,41.5,26.3,43.4,31.3,25.5,98,73,33,30.39,30.25,12,2,14,0.00
2013-3-29,51.5,41.6,32.0,42.6,36.3,31.0,97,83,48,30.37,30.23,6,2,11,0.00
2013-3-30,64.7,51.8,43.3,53.8,46.2,42.2,99,84,51,30.24,29.98,8,2,10,0.25
2013-3-31,64.1,58.5,54.1,59.1,56.0,53.8,99,92,73,29.99,29.83,10,5,12,0.27
2013-4-1,65.6,53.9,39.7,56.2,45.9,38.9,100,78,45,30.07,29.88,11,3,14,0.01
2013-4-2,56.5,48.6,40.2,39.9,29.1,21.2,69,48,27,30.23,30.07,9,4,11,0.00
2013-4-3,57.2,50.8,43.6,30.4,26.1,22.4,56,39,29,30.24,30.14,9,5,13,0.00
2013-4-4,52.7,44.7,41.3,45.0,41.4,27.8,99,90,39,30.15,29.98,6,2,10,1.50
2013-4-5,66.1,51.7,42.5,46.7,41.1,34.9,97,72,32,30.09,29.98,9,3,14,0.00
2013-4-6,71.1,54.5,36.3,47.2,40.1,35.8,99,65,29,30.19,30.03,14,4,22,0.00
2013-4-7,73.8,61.9,48.8,51.8,46.8,41.4,86,59,38,30.15,30.00,13,6,17,0.00
2013-4-8,76.2,65.5,51.4,58.2,53.7,48.8,93,68,47,30.08,29.98,14,6,17,0.00
2013-4-9,79.3,66.1,50.8,62.1,56.3,50.0,98,73,48,30.15,29.98,13,3,18,0.00
2013-4-10,83.0,70.6,56.4,62.7,58.5,53.6,96,68,45,30.08,29.84,11,4,14,0.00
2013-4-11,79.3,70.7,62.5,66.5,60.5,56.9,99,71,55,29.86,29.52,18,9,28,1.13
2013-4-12,66.8,58.7,47.2,62.5,48.3,39.1,99,71,37,29.94,29.51,14,6,20,0.19
2013-4-13,72.7,56.0,41.8,50.4,41.9,34.7,99,67,26,30.07,29.94,9,2,14,0.00
2013-4-14,65.6,53.8,42.8,55.4,48.3,41.6,98,83,53,30.03,29.91,17,2,22,0.03
2013-4-15,72.4,59.3,55.2,60.0,55.8,53.3,97,89,63,30.03,29.91,7,1,9,0.00
2013-4-16,71.6,59.3,54.4,63.6,57.1,53.6,98,93,76,30.20,30.07,1,0,0,0.00
2013-4-17,84.2,77.6,70.2,69.6,66.6,59.6,85,70,54,30.17,30.06,22,4,22,0.00
2013-4-18,74.9,62.0,57.8,66.1,60.3,57.5,100,95,67,30.02,29.99,22,2,22,0.00
2013-4-19,74.8,59.0,46.5,65.1,51.5,35.0,98,77,60,30.10,29.63,19,8,0,1.45
2013-4-20,62.6,48.4,33.5,42.0,35.1,30.4,98,66,30,30.28,30.11,8,3,0,0.00
2013-4-21,68.9,53.4,38.7,48.2,40.0,36.6,97,66,31,30.38,30.22,6,2,0,0.00
2013-4-22,73.8,56.6,40.7,52.7,45.0,39.9,99,70,34,30.33,30.11,4,1,0,0.00
2013-4-23,73.8,59.3,42.9,53.0,47.9,42.4,99,70,41,30.20,30.00,16,3,16,0.00
2013-4-24,70.0,60.6,49.4,62.5,53.8,42.1,94,79,67,30.22,29.98,27,7,27,0.11
2013-4-25,68.0,53.5,39.5,43.4,39.1,32.1,95,62,29,30.34,30.21,17,3,17,0.00
2013-4-26,71.1,55.7,37.8,48.5,40.8,34.1,99,64,28,30.38,30.24,16,2,16,0.00
2013-4-27,58.6,53.7,51.8,55.3,53.3,48.3,100,99,70,30.36,30.08,14,1,14,1.08
2013-4-28,60.0,57.0,53.3,59.6,56.6,53.3,100,99,93,30.10,29.88,12,3,16,1.39
2013-4-29,74.5,62.6,54.2,60.6,57.2,53.8,100,84,56,30.02,29.90,12,2,12,0.00
2013-4-30,79.2,63.3,50.0,62.7,56.7,49.7,100,82,52,30.05,29.93,13,1,13,0.01
2013-5-1,79.2,67.3,56.3,63.1,59.2,55.7,99,78,48,30.15,30.05,10,1,10,0.00
2013-5-2,78.6,67.1,54.0,62.9,57.7,52.6,97,73,52,30.15,30.05,11,1,11,0.00
2013-5-3,75.4,65.7,59.3,59.2,55.7,52.3,91,71,49,30.09,29.92,21,2,21,0.04
2013-5-4,64.6,56.7,52.2,55.4,53.2,48.8,100,90,62,29.93,29.85,14,2,14,1.96
2013-5-5,59.4,52.4,47.6,59.0,52.3,47.6,100,100,98,29.86,29.75,21,2,21,1.60
2013-5-6,59.1,51.7,44.2,51.7,49.3,44.1,100,92,70,29.90,29.77,16,2,16,0.17
2013-5-7,72.6,58.0,46.1,60.0,52.1,45.8,100,83,49,29.96,29.87,13,1,13,0.03
2013-5-8,75.6,62.6,51.8,64.3,57.7,51.4,100,86,54,30.03,29.92,13,2,13,0.02
2013-5-9,81.2,67.2,54.5,66.6,59.0,54.5,100,79,43,30.08,29.97,11,1,11,0.01
2013-5-10,74.2,66.2,56.1,63.4,59.4,55.8,99,80,57,30.04,29.90,21,4,21,0.00
2013-5-11,74.5,66.6,58.2,66.8,61.2,53.0,97,83,68,29.97,29.84,16,4,16,0.17
2013-5-12,65.3,57.6,47.3,53.8,41.8,32.5,97,60,31,30.13,29.96,20,4,20,0.00
2013-5-13,68.0,53.2,38.2,46.0,39.2,30.1,99,66,28,30.25,30.12,19,2,19,0.00
2013-5-14,79.6,60.5,40.7,59.3,49.7,39.8,100,72,43,30.24,30.02,21,4,21,0.00
2013-5-15,85.7,72.1,57.6,62.4,57.9,53.7,92,64,36,30.13,29.94,13,3,13,0.00
2013-5-16,82.7,69.1,56.4,66.8,60.7,55.6,98,77,43,30.04,29.91,14,2,14,0.00
2013-5-17,80.8,70.0,60.2,67.1,62.8,59.4,98,80,57,30.05,29.96,15,2,15,0.07
2013-5-18,76.4,69.2,64.5,70.5,66.6,63.6,100,92,80,30.03,29.95,19,4,19,0.32
2013-5-19,72.2,67.4,60.5,69.8,66.0,60.1,99,95,90,30.06,29.91,24,3,24,0.92
2013-5-20,84.0,68.5,57.4,72.0,64.1,57.1,100,88,61,30.10,29.95,11,1,11,0.01
2013-5-21,86.9,72.3,61.5,73.9,67.2,61.2,100,86,58,30.01,29.85,26,2,26,0.00
2013-5-22,84.5,71.5,63.9,71.4,66.5,63.3,99,86,53,29.92,29.79,24,3,24,0.18
2013-5-23,81.8,70.8,60.8,68.0,62.6,56.5,100,78,47,29.98,29.86,19,3,19,0.01
2013-5-24,72.5,63.6,53.9,57.6,50.9,43.8,97,66,37,30.23,29.98,22,4,22,0.00
2013-5-25,78.8,61.4,46.0,57.0,48.6,42.6,98,68,32,30.32,30.14,10,1,10,0.00
2013-5-26,81.0,64.6,50.5,59.8,53.3,44.6,99,72,31,30.26,30.13,10,1,10,0.00
2013-5-27,84.0,68.8,53.7,64.7,59.2,53.1,99,75,43,30.20,30.05,15,2,15,0.00
2013-5-28,84.8,73.7,61.7,65.9,61.9,55.3,96,69,37,30.14,30.03,20,4,20,0.00
2013-5-29,85.4,75.1,64.0,63.4,60.6,56.8,87,62,42,30.17,30.04,15,4,15,0.00
2013-5-30,82.5,74.4,63.8,66.1,62.9,60.1,91,68,53,30.18,30.03,12,3,12,0.00
2013-5-31,83.9,76.1,67.9,64.8,63.0,60.9,81,65,48,30.13,30.00,18,5,18,0.00
2013-6-1,82.7,75.5,70.3,71.2,66.3,62.1,94,74,59,30.03,29.90,21,6,21,0.17
2013-6-2,80.2,72.3,69.2,70.9,68.5,65.7,98,89,65,29.93,29.83,14,3,14,1.46
2013-6-3,80.2,72.1,66.0,68.6,63.8,56.6,100,78,46,29.96,29.85,13,3,13,0.01
2013-6-4,83.9,71.9,60.4,67.0,60.7,57.0,95,70,43,30.00,29.92,10,2,10,0.00
2013-6-5,82.2,69.7,64.7,71.1,65.5,62.5,98,88,63,29.99,29.87,23,2,23,0.47
2013-6-6,81.0,71.0,63.7,70.1,66.5,63.4,100,87,62,29.89,29.69,17,2,17,1.15
2013-6-7,81.5,69.8,66.0,70.1,66.8,63.3,100,91,56,29.83,29.67,13,2,13,0.35
2013-6-8,80.8,71.2,63.7,67.4,65.0,57.5,100,83,48,30.02,29.82,9,2,9,0.00
2013-6-9,82.0,72.0,65.9,70.6,67.9,64.9,98,87,64,30.05,29.92,23,3,23,0.13
2013-6-10,82.0,73.4,68.1,69.5,66.6,60.0,97,81,49,29.94,29.83,30,6,30,0.51
2013-6-11,87.8,77.0,68.6,73.8,69.7,65.9,99,80,50,30.00,29.91,14,1,14,0.06
2013-6-12,89.5,80.2,71.0,74.5,72.1,69.5,96,78,55,30.02,29.89,10,2,10,0.00
2013-6-13,87.2,79.4,73.0,74.2,70.7,64.5,89,75,62,29.90,29.67,23,6,23,0.00
2013-6-14,82.7,73.4,63.1,65.4,59.0,51.1,90,63,34,29.99,29.83,19,5,19,0.00
2013-6-15,84.4,73.8,61.8,63.4,60.5,56.8,93,66,41,30.09,29.98,12,2,12,0.00
2013-6-16,85.4,75.1,64.6,70.6,65.0,61.9,95,73,52,30.09,29.94,14,3,14,0.02
2013-6-17,83.8,72.8,68.5,71.7,68.3,64.6,96,87,61,30.01,29.88,20,2,20,0.31
2013-6-18,77.2,71.8,67.0,72.6,68.6,64.6,98,90,70,29.91,29.82,19,4,19,0.60
2013-6-19,86.8,73.3,63.5,68.5,64.6,60.1,98,77,41,30.03,29.89,12,2,12,0.00
2013-6-20,85.5,72.9,64.1,69.1,65.4,62.1,99,80,49,30.16,30.03,14,1,14,0.02
2013-6-21,82.7,73.1,66.6,70.6,67.1,63.9,99,83,55,30.22,30.11,7,1,7,0.01
2013-6-22,87.3,75.7,66.1,68.9,65.4,61.3,98,73,43,30.19,30.03,8,1,8,0.00
2013-6-23,84.8,75.0,65.8,70.8,66.9,63.1,97,78,54,30.16,30.04,17,1,17,0.03
2013-6-24,86.7,76.8,68.1,71.7,69.0,64.3,99,79,50,30.18,30.02,10,2,10,0.00
2013-6-25,84.8,76.3,71.0,75.0,70.8,67.8,92,83,65,30.12,29.97,9,2,9,0.00
2013-6-26,87.3,79.2,71.6,75.5,72.3,68.0,97,80,55,30.02,29.83,13,4,13,0.00
2013-6-27,86.9,78.3,72.6,74.8,72.1,67.2,98,82,65,29.90,29.74,38,4,38,0.15
2013-6-28,88.8,77.0,69.8,73.9,70.2,63.7,99,81,54,29.80,29.61,26,3,26,0.00
2013-6-29,84.4,76.4,68.6,69.8,63.5,54.3,95,68,40,29.68,29.61,11,2,11,0.00
2013-6-30,85.9,75.2,65.4,66.6,62.1,51.8,93,67,33,29.78,29.64,11,2,14,0.00
2013-7-1,81.6,72.0,65.0,70.0,65.8,61.1,98,82,55,29.88,29.73,20,2,20,0.43
2013-7-2,82.8,72.4,65.4,70.0,66.8,63.9,98,84,58,30.02,29.87,13,3,13,0.96
2013-7-3,71.9,69.2,66.1,71.0,67.7,62.7,98,95,83,30.12,30.01,16,2,16,1.40
2013-7-4,75.3,69.9,66.1,72.1,68.2,65.2,99,94,83,30.12,30.03,14,2,14,0.76
2013-7-5,75.1,71.6,68.6,71.7,69.2,67.6,98,92,82,30.15,30.05,14,3,14,0.12
2013-7-6,76.1,69.4,66.7,72.5,68.6,66.2,99,97,87,30.11,30.07,18,1,18,1.92
2013-7-7,75.9,70.9,67.3,73.2,70.0,67.1,100,97,88,30.13,30.05,8,1,8,0.98
2013-7-8,87.3,76.5,69.4,75.4,71.5,69.4,100,86,60,30.17,30.04,6,1,6,0.00
2013-7-9,85.8,77.9,71.6,77.5,73.7,71.0,99,88,66,30.13,30.00,9,2,9,0.00
2013-7-10,86.4,76.5,68.8,77.0,73.0,67.3,99,90,67,30.05,29.88,26,2,26,0.24
2013-7-11,85.2,74.5,68.5,75.3,70.8,67.8,100,89,65,29.95,29.83,8,1,8,0.09
2013-7-12,81.8,75.1,68.8,73.0,68.1,63.9,98,80,58,29.94,29.86,17,4,17,0.00
2013-7-13,81.6,72.8,64.6,73.5,67.4,62.7,96,84,67,30.03,29.91,7,2,11,0.04
2013-7-14,83.3,75.8,69.6,72.8,69.9,68.0,97,83,65,30.16,30.01,20,3,20,0.00
2013-7-15,86.7,78.7,71.1,72.4,68.8,65.6,89,72,52,30.25,30.15,17,3,17,0.00
2013-7-16,89.3,80.3,70.0,74.1,70.9,68.1,97,75,53,30.28,30.17,12,2,12,0.00
2013-7-17,90.0,80.0,70.8,76.2,72.4,67.2,99,79,51,30.25,30.08,15,2,15,0.00
2013-7-18,87.5,78.2,70.3,75.3,70.1,66.8,93,77,60,30.18,29.99,12,2,12,0.01
2013-7-19,90.2,79.7,70.1,76.0,71.0,65.7,97,77,47,30.08,29.91,13,2,13,0.00
2013-7-20,89.6,79.9,72.9,75.6,71.7,66.3,93,77,49,29.98,29.84,10,2,10,0.00
2013-7-21,84.7,75.3,70.8,73.7,71.4,68.7,96,88,67,29.98,29.89,19,3,19,0.26
2013-7-22,82.7,75.1,70.5,74.1,70.4,66.7,97,86,62,29.95,29.80,15,4,15,0.07
2013-7-23,79.9,74.7,70.0,73.5,70.9,67.3,96,88,78,29.91,29.78,17,4,17,0.17
2013-7-24,84.3,75.5,70.2,72.9,70.3,63.7,100,85,57,29.85,29.77,11,2,11,0.00
2013-7-25,83.3,74.2,65.4,69.1,65.6,61.1,94,76,50,30.00,29.85,17,4,17,0.00
2013-7-26,85.3,74.3,63.8,71.3,66.3,61.9,95,77,53,30.04,29.92,11,2,11,0.00
2013-7-27,82.9,74.9,68.7,71.7,69.1,63.6,98,83,54,29.95,29.83,11,2,11,0.00
2013-7-28,81.5,73.7,68.5,69.6,65.8,59.8,96,78,56,30.04,29.88,12,2,12,0.00
2013-7-29,78.9,69.8,61.1,64.1,58.6,45.3,92,70,32,30.16,30.03,12,2,12,0.00
2013-7-30,83.7,72.3,62.8,71.2,63.5,57.8,96,76,46,30.20,30.07,8,2,8,0.00
2013-7-31,76.2,70.9,67.0,71.4,68.3,65.6,98,92,79,30.11,29.93,11,3,11,0.38
2013-8-1,84.1,76.0,71.0,72.3,69.7,67.1,98,82,57,29.95,29.90,12,3,14,0.03
2013-8-2,87.0,75.0,65.8,72.1,66.7,59.8,98,78,43,30.00,29.93,11,2,11,0.00
2013-8-3,82.0,75.3,67.9,72.4,69.7,67.1,98,84,63,30.02,29.95,8,1,8,0.00
2013-8-4,84.8,76.5,69.7,71.8,68.0,61.9,97,77,51,30.04,29.96,17,4,17,0.00
2013-8-5,85.2,74.1,63.0,68.7,63.0,52.4,94,71,37,30.05,29.93,8,2,8,0.00
2013-8-6,81.8,75.4,70.3,73.9,69.6,66.3,95,83,65,29.97,29.90,8,2,8,0.02
2013-8-7,81.9,74.2,71.0,74.8,71.2,69.0,98,91,76,30.00,29.91,11,2,11,0.11
2013-8-8,84.7,74.7,70.4,75.8,71.6,68.3,99,90,71,30.01,29.93,21,3,21,0.16
2013-8-9,88.5,78.2,70.8,76.1,72.9,70.3,99,85,62,30.03,29.93,12,2,12,0.11
2013-8-10,85.9,77.1,73.3,75.4,73.5,70.2,97,89,66,30.08,30.02,14,2,23,0.04
2013-8-11,85.5,76.7,71.4,76.2,72.9,70.4,99,89,68,30.12,30.01,20,2,20,0.01
2013-8-12,85.0,75.4,70.2,76.0,72.9,69.8,99,92,68,30.08,29.93,19,2,19,0.21
2013-8-13,83.5,76.2,70.9,73.5,71.1,68.3,99,85,61,29.97,29.83,11,3,11,0.05
2013-8-14,79.5,71.8,65.0,71.1,64.1,59.3,94,78,54,30.01,29.89,17,5,17,0.00
2013-8-15,79.2,69.4,61.1,66.8,61.4,57.3,88,76,58,30.05,29.98,10,3,10,0.00
2013-8-16,75.0,68.6,61.8,64.7,62.1,58.3,96,81,63,30.07,30.01,10,2,10,0.00
2013-8-17,74.9,68.4,65.8,67.2,64.4,62.8,98,88,70,30.10,30.04,10,1,10,0.54
2013-8-18,75.8,69.5,65.8,69.8,67.1,65.2,99,92,74,30.16,30.07,11,1,11,0.47
2013-8-19,79.5,70.8,67.0,71.9,68.7,66.2,99,94,77,30.12,30.02,7,1,7,0.71
2013-8-20,83.4,74.8,67.5,73.6,70.3,67.2,100,87,63,30.14,30.04,10,1,10,0.01
2013-8-21,76.7,72.7,69.7,73.3,71.1,69.4,99,95,86,30.18,30.08,10,1,10,0.32
2013-8-22,85.0,75.1,69.2,74.8,71.5,68.9,100,90,63,30.15,30.00,6,1,6,0.00
2013-8-23,88.2,74.5,68.1,73.4,69.7,67.7,100,87,56,30.07,29.95,18,1,18,0.01
2013-8-24,84.8,74.2,66.1,72.1,68.9,65.5,99,85,62,30.20,30.03,10,3,10,0.00
2013-8-25,84.5,74.2,65.3,69.1,64.2,57.8,99,74,44,30.32,30.20,9,1,9,0.00
2013-8-26,84.2,73.7,63.3,67.6,63.8,60.2,98,73,50,30.29,30.11,8,1,8,0.00
2013-8-27,87.5,74.3,63.6,72.1,66.8,63.0,98,79,52,30.13,30.00,9,1,9,0.00
2013-8-28,86.9,76.9,67.4,74.0,70.2,66.7,99,82,58,30.04,29.94,8,1,8,0.00
2013-8-29,89.5,79.0,70.2,75.8,71.8,69.0,97,80,56,29.99,29.88,9,2,11,0.00
2013-8-30,86.3,77.5,71.1,75.9,73.3,70.8,99,88,67,29.97,29.88,11,1,11,0.00
2013-8-31,89.3,79.5,72.2,75.4,72.5,69.0,98,81,54,29.93,29.80,9,2,9,0.00
2013-9-1,83.8,75.0,70.7,74.5,70.9,68.8,96,87,70,29.89,29.80,13,2,13,0.25
2013-9-2,83.3,75.8,70.7,73.3,71.3,68.9,99,87,68,29.93,29.81,10,2,10,0.00
2013-9-3,85.8,77.3,71.6,71.7,69.3,64.5,97,78,51,29.97,29.81,13,2,13,0.00
2013-9-4,84.0,73.3,64.2,68.8,65.1,62.6,96,77,51,30.09,29.96,10,2,10,0.00
2013-9-5,69.7,66.0,63.5,66.0,63.7,61.5,96,92,88,30.10,30.06,8,2,8,0.00
2013-9-6,85.1,72.9,62.7,69.5,64.2,61.4,96,77,46,30.14,30.02,5,2,0,0.00
2013-9-7,85.5,73.2,62.6,69.9,66.2,62.1,99,81,54,30.10,29.96,5,1,0,0.01
2013-9-8,87.1,76.3,65.1,73.5,68.4,64.5,98,79,51,29.99,29.90,4,1,0,0.00
2013-9-9,88.0,77.8,70.1,72.4,70.3,67.2,97,80,52,30.07,29.97,10,1,10,0.00
2013-9-10,89.0,78.1,68.3,72.1,69.5,65.7,98,77,49,30.18,30.07,9,1,9,0.00
2013-9-11,88.2,78.5,70.4,71.9,69.8,66.5,98,77,51,30.19,30.05,8,1,8,0.00
2013-9-12,86.3,77.3,69.3,71.6,69.4,67.7,97,79,54,30.07,29.86,13,2,13,0.00
2013-9-13,76.6,71.8,61.9,69.1,60.6,44.3,95,70,33,29.95,29.85,20,5,20,0.00
2013-9-14,76.5,64.1,52.9,59.4,53.6,49.4,89,71,45,30.05,29.94,14,3,14,0.00
2013-9-15,81.4,68.0,56.1,65.6,59.2,54.5,96,76,47,30.14,30.05,14,2,14,0.00
2013-9-16,83.6,70.7,60.0,67.2,61.6,55.3,99,76,40,30.14,30.05,14,2,14,0.00
2013-9-17,79.4,70.5,63.0,65.7,62.7,60.2,93,77,62,30.18,30.08,9,4,11,0.00
2013-9-18,77.3,70.6,65.1,64.1,60.8,58.1,87,72,55,30.20,30.08,15,2,15,0.00
2013-9-19,83.2,71.1,60.0,65.9,62.8,59.1,98,77,52,30.17,30.01,10,1,10,0.00
2013-9-20,83.9,73.3,63.5,66.2,63.7,60.1,97,74,45,30.05,29.84,10,2,12,0.00
2013-9-21,75.2,67.8,60.4,68.7,64.2,58.1,98,89,73,29.86,29.71,27,5,27,1.07
2013-9-22,75.3,64.0,54.9,58.6,55.6,51.4,97,77,45,29.89,29.80,15,4,18,0.00
2013-9-23,79.3,66.1,55.3,64.6,58.0,53.7,95,77,50,29.99,29.89,8,2,8,0.00
2013-9-24,71.9,64.5,57.6,65.2,61.4,57.0,98,90,72,30.01,29.86,5,1,7,0.01
2013-9-25,68.0,65.3,64.0,65.5,64.4,63.3,99,97,90,29.86,29.80,8,1,8,0.64
2013-9-26,80.0,68.6,63.5,66.6,63.6,60.9,99,86,53,29.99,29.85,9,1,9,0.02
2013-9-27,80.7,67.4,58.0,65.1,60.3,57.4,98,81,47,30.12,29.99,10,1,10,0.00
2013-9-28,77.3,67.0,57.3,63.5,59.2,56.3,99,78,52,30.19,30.06,8,1,8,0.00
2013-9-29,73.6,65.8,58.3,61.3,56.9,52.8,92,74,52,30.12,29.99,9,1,9,0.00
2013-9-30,76.8,64.2,56.6,65.2,58.9,56.3,100,85,53,30.07,29.96,14,2,14,0.01
2013-10-1,84.8,66.0,54.9,67.5,61.5,54.6,100,87,52,30.14,30.02,10,1,10,0.00
2013-10-2,85.1,69.0,58.7,70.2,64.1,58.6,100,87,55,30.15,30.02,7,0,7,0.00
2013-10-3,83.5,71.6,62.8,68.1,65.0,61.8,100,82,52,30.10,30.00,13,2,13,0.00
2013-10-4,86.3,69.0,58.4,71.1,64.1,58.3,100,87,53,30.14,30.04,8,0,8,0.00
2013-10-5,85.9,70.7,61.0,72.7,65.6,60.7,100,86,54,30.10,29.96,11,1,11,0.01
2013-10-6,82.2,70.1,60.3,71.1,65.8,57.4,100,88,62,29.98,29.76,24,5,24,0.02
2013-10-7,70.2,61.2,55.6,57.5,53.7,48.0,99,79,51,30.04,29.86,18,3,21,0.19
2013-10-8,76.1,61.6,51.7,59.0,53.0,48.4,93,75,52,30.11,30.03,9,2,12,0.00
2013-10-9,78.3,63.0,52.6,62.5,57.7,52.3,100,85,55,30.18,30.07,10,1,10,0.00
2013-10-10,77.3,63.5,53.2,60.7,56.4,52.8,99,80,49,30.14,30.01,12,1,12,0.00
2013-10-11,78.3,64.3,51.9,60.0,55.6,51.4,98,76,46,30.08,29.96,8,1,8,0.00
2013-10-12,76.8,64.3,51.4,61.8,56.6,50.9,99,79,48,30.10,29.99,9,1,9,0.00
2013-10-13,79.1,65.8,53.4,62.8,58.1,52.8,99,79,50,30.20,30.08,15,2,15,0.01
2013-10-14,79.0,68.7,60.2,63.9,60.9,58.2,93,78,53,30.19,30.06,9,1,9,0.00
2013-10-15,69.9,65.6,60.8,62.9,59.8,57.6,96,82,68,30.12,30.01,9,2,9,0.00
2013-10-16,71.5,64.5,59.5,63.7,60.1,55.9,95,86,73,30.04,29.92,11,2,11,0.01
2013-10-17,71.8,64.5,57.6,68.1,61.5,53.3,98,90,76,29.98,29.85,18,5,18,0.15
2013-10-18,67.6,56.0,48.3,53.7,50.1,47.1,99,83,50,30.06,29.94,12,2,12,0.00
2013-10-19,68.7,55.4,45.6,56.2,51.2,44.0,99,87,61,30.04,29.89,12,3,17,0.00
2013-10-20,66.8,48.4,35.6,51.7,42.5,35.6,100,84,42,30.11,30.01,11,1,11,0.01
2013-10-21,70.4,51.0,37.5,58.1,45.4,37.2,100,85,45,30.14,29.99,13,1,13,0.01
2013-10-22,68.4,57.9,48.1,55.3,52.4,47.3,99,83,59,30.02,29.84,9,1,9,0.00
2013-10-23,53.2,46.6,34.7,47.9,40.6,33.4,100,82,51,30.11,29.82,23,3,23,0.01
2013-10-24,57.4,46.2,34.5,44.1,39.2,33.2,98,79,53,30.28,30.09,14,3,14,0.00
2013-10-25,53.3,40.5,28.0,36.7,30.2,26.4,95,70,37,30.46,30.28,18,2,18,0.00
2013-10-26,60.2,42.2,25.4,42.3,31.8,24.8,100,72,35,30.37,30.14,18,3,18,0.00
2013-10-27,65.0,55.7,47.2,53.7,45.3,35.6,85,69,51,30.16,30.07,14,2,14,0.00
2013-10-28,62.4,56.3,48.0,58.0,54.0,47.4,100,92,81,30.26,30.10,14,2,14,0.02
2013-10-29,73.5,58.5,51.2,60.4,55.0,50.9,100,90,62,30.33,30.20,7,0,7,0.00
2013-10-30,78.3,63.6,53.2,60.8,57.1,52.8,100,82,50,30.26,30.10,15,2,15,0.00
2013-10-31,72.9,68.0,61.3,64.5,60.8,55.9,89,78,70,30.12,29.65,38,9,38,0.02
2013-11-1,72.8,64.1,48.1,65.5,56.2,45.3,99,78,41,29.81,29.64,27,4,27,0.24
2013-11-2,64.8,50.6,41.0,52.7,43.8,38.4,100,81,40,30.11,29.80,25,2,25,0.01
2013-11-3,60.6,46.2,35.5,49.3,40.0,35.0,100,82,44,30.31,30.10,11,1,11,0.00
2013-11-4,68.8,47.2,33.3,51.2,39.5,32.8,100,79,38,30.42,30.31,14,1,14,0.01
2013-11-5,67.7,52.7,41.1,48.0,42.5,38.9,97,72,39,30.45,30.29,7,1,7,0.00
2013-11-6,74.3,61.0,47.0,59.7,53.7,44.2,91,78,59,30.31,30.05,24,4,24,0.00
2013-11-7,66.0,53.7,43.1,60.2,45.5,33.4,100,76,42,30.28,30.00,20,6,20,0.39
2013-11-8,57.8,42.9,30.5,34.8,30.8,24.4,98,68,29,30.40,30.27,14,2,14,0.00
2013-11-9,57.1,43.5,28.5,40.3,33.9,27.8,99,73,41,30.35,30.23,20,2,20,0.00
2013-11-10,69.4,51.2,36.9,45.6,40.1,34.4,99,70,39,30.33,30.22,12,1,12,0.00
2013-11-11,67.5,46.8,30.4,40.9,34.6,29.3,98,68,28,30.33,30.15,12,1,12,0.00
2013-11-12,53.2,42.3,32.1,44.2,31.7,17.6,87,67,42,30.56,30.14,29,6,29,0.00
2013-11-13,46.7,34.1,24.4,22.8,20.4,18.3,88,59,34,30.67,30.49,18,3,18,0.00
2013-11-14,58.4,34.7,18.9,31.1,22.0,16.8,97,68,20,30.53,30.30,10,1,10,0.00
2013-11-15,47.4,39.1,27.3,43.4,35.4,23.3,97,87,64,30.31,30.16,7,0,7,0.36
2013-11-16,64.1,51.9,44.5,58.6,49.9,43.3,98,93,81,30.23,30.08,17,1,17,0.01
2013-11-17,68.4,63.7,57.7,66.5,61.2,55.9,100,92,76,30.08,29.82,24,7,24,0.44
2013-11-18,67.5,58.5,48.7,66.8,45.1,34.3,100,64,34,30.14,29.84,25,4,25,0.20
2013-11-19,55.1,47.4,40.7,35.5,30.9,26.1,70,53,34,30.23,30.11,19,4,19,0.00
2013-11-20,62.1,44.7,29.7,39.5,34.1,28.6,98,70,35,30.32,30.17,10,1,10,0.00
2013-11-21,60.9,53.0,41.7,54.4,46.4,38.6,93,79,63,30.36,30.25,10,1,10,0.00
2013-11-22,61.8,57.5,53.3,58.7,56.0,53.0,99,95,87,30.30,30.17,14,2,14,0.12
2013-11-23,53.3,47.0,35.4,53.0,39.7,22.5,99,77,53,30.40,30.18,20,7,20,0.00
2013-11-24,38.2,31.8,25.7,24.1,15.3,8.6,69,52,30,30.59,30.39,24,6,24,0.00
2013-11-25,41.3,34.7,28.4,33.4,21.6,13.9,93,60,39,30.49,30.22,7,1,7,0.28
2013-11-26,42.6,37.7,33.5,42.6,37.4,32.0,100,99,94,30.22,29.76,19,3,19,2.30
2013-11-27,37.7,33.0,27.3,37.7,27.0,18.7,100,79,62,30.33,29.83,24,9,24,0.01
2013-11-28,48.4,30.1,18.4,27.8,22.1,16.6,96,75,38,30.52,30.32,9,1,9,0.00
2013-11-29,52.2,33.4,21.3,32.3,26.3,20.6,98,79,38,30.61,30.49,9,1,9,0.00
2013-11-30,55.4,36.1,23.2,35.9,28.7,22.4,99,78,38,30.56,30.32,12,1,12,0.00
2013-12-1,55.7,40.5,24.0,40.2,33.3,23.3,99,78,51,30.34,30.01,11,1,11,0.00
2013-12-2,49.5,47.3,44.5,48.7,45.7,40.0,99,94,77,30.01,29.80,9,1,9,0.05
2013-12-3,55.2,51.8,48.7,54.4,51.4,48.4,100,98,96,29.87,29.81,4,0,4,0.01
2013-12-4,71.4,61.6,53.0,63.7,58.7,52.6,99,91,74,29.95,29.85,23,5,23,0.00
2013-12-5,73.1,68.4,64.4,68.1,65.8,62.1,97,92,83,30.00,29.88,20,8,20,0.01
2013-12-6,69.6,53.4,38.7,67.8,53.0,38.7,100,99,92,30.18,29.82,23,6,23,1.47
2013-12-7,40.6,38.6,36.7,39.6,36.5,35.1,100,92,86,30.41,30.18,22,7,22,0.00
2013-12-8,47.1,40.6,36.9,47.1,40.1,35.6,100,98,94,30.34,30.08,11,2,11,0.88
2013-12-9,47.7,46.9,46.1,47.6,46.9,46.1,100,100,100,30.16,30.06,11,3,11,0.41
2013-12-10,42.3,37.1,26.7,40.4,34.0,25.8,100,89,65,30.39,30.02,14,4,14,0.48
2013-12-11,50.4,34.6,22.4,38.0,29.6,21.8,99,84,47,30.49,30.36,8,1,8,0.00
2013-12-12,41.9,31.9,23.3,30.4,23.8,17.3,96,74,38,30.56,30.43,15,2,15,0.00
2013-12-13,47.3,33.1,20.0,34.0,26.0,19.2,98,78,41,30.46,30.17,6,0,6,0.00
2013-12-14,51.4,43.1,37.5,51.4,41.4,32.3,100,94,79,30.20,29.81,20,2,20,0.71
2013-12-15,44.8,37.0,32.5,42.0,33.3,29.4,94,87,82,30.25,29.90,14,5,16,0.01
2013-12-16,52.1,37.9,26.0,38.8,32.5,25.5,99,82,58,30.28,30.14,17,4,17,0.00
2013-12-17,60.4,45.2,31.3,40.1,34.6,28.4,97,69,44,30.26,30.03,24,5,24,0.00
2013-12-18,53.7,36.5,23.8,31.8,26.3,21.5,97,70,30,30.37,30.25,8,1,8,0.00
2013-12-19,59.9,39.4,24.4,34.6,28.2,23.1,98,71,25,30.34,30.16,16,2,16,0.00
2013-12-20,62.9,51.8,34.3,55.2,42.7,32.3,95,73,44,30.19,30.04,24,5,24,0.00
2013-12-21,73.1,66.3,61.1,66.8,61.5,55.0,97,85,77,30.04,29.77,32,10,32,0.07
2013-12-22,71.2,69.5,67.6,67.1,66.4,60.9,96,90,75,29.84,29.76,35,15,35,0.01
2013-12-31,42.3,33.3,27.6,34.7,29.4,26.6,99,86,59,30.49,30.23,5,1,0,0.00
2014-1-1,50.8,33.6,23.5,36.2,29.7,23.0,99,87,53,30.38,30.11,10,1,0,0.00
2014-1-2,46.7,37.8,23.6,46.1,34.6,14.3,100,89,67,30.24,29.80,17,8,0,0.22